createdAt,value
2018-12-22T00:04:53.981Z,99096.53
2018-12-22T00:09:57.274Z,99097.03
2018-12-22T00:15:00.571Z,99095.20
2018-12-22T00:20:04.001Z,99101.28
2018-12-22T00:25:07.305Z,99113.13
2018-12-22T00:30:10.614Z,99122.18
2018-12-22T00:35:13.908Z,99123.22
2018-12-22T00:40:17.217Z,99133.48
2018-12-22T00:45:20.533Z,99140.20
2018-12-22T00:50:23.835Z,99153.95
2018-12-22T00:55:27.145Z,99161.66
2018-12-22T01:00:30.439Z,99158.48
2018-12-22T01:05:33.766Z,99171.75
2018-12-22T01:10:37.053Z,99169.21
2018-12-22T01:15:40.360Z,99160.16
2018-12-22T01:20:43.677Z,99163.70
2018-12-22T01:25:46.966Z,99160.52
2018-12-22T01:30:50.265Z,99166.53
2018-12-22T01:35:53.560Z,99176.27
2018-12-22T01:40:56.852Z,99180.56
2018-12-22T01:46:00.221Z,99172.17
2018-12-22T01:51:03.513Z,99176.27
2018-12-22T01:56:06.809Z,99171.52
2018-12-22T02:01:10.102Z,99185.81
2018-12-22T02:06:13.403Z,99185.66
2018-12-22T02:11:16.701Z,99197.89
2018-12-22T02:16:20.012Z,99206.78
2018-12-22T02:21:23.292Z,99213.62
2018-12-22T02:26:26.596Z,99215.80
2018-12-22T02:31:29.905Z,99225.00
2018-12-22T02:36:33.219Z,99244.78
2018-12-22T02:41:36.532Z,99248.61
2018-12-22T02:46:39.841Z,99252.63
2018-12-22T02:51:43.137Z,99262.37
2018-12-22T02:56:46.445Z,99265.55
2018-12-22T03:01:49.745Z,99260.69
2018-12-22T03:06:53.046Z,99260.61
2018-12-22T03:11:56.354Z,99255.13
2018-12-22T03:16:59.660Z,99259.64
2018-12-22T03:22:02.958Z,99262.94
2018-12-22T03:27:06.245Z,99266.97
2018-12-22T03:32:09.570Z,99274.52
2018-12-22T03:37:12.965Z,99275.52
2018-12-22T03:42:16.257Z,99268.95
2018-12-22T03:47:19.539Z,99263.09
2018-12-22T03:52:22.821Z,99264.13
2018-12-22T03:57:26.101Z,99261.10
2018-12-22T04:02:29.384Z,99259.91
2018-12-22T04:07:32.662Z,99273.41
2018-12-22T04:12:35.941Z,99271.34
2018-12-22T04:17:39.349Z,99275.34
2018-12-22T04:22:42.630Z,99275.41
2018-12-22T04:27:45.916Z,99275.11
2018-12-22T04:32:49.219Z,99273.00
2018-12-22T04:37:52.508Z,99277.15
2018-12-22T04:42:55.800Z,99272.08
2018-12-22T04:47:59.093Z,99275.41
2018-12-22T04:53:02.377Z,99290.48
2018-12-22T04:58:05.660Z,99282.77
2018-12-22T05:03:08.937Z,99281.93
2018-12-22T05:08:12.237Z,99284.11
2018-12-22T05:13:15.513Z,99289.41
2018-12-22T05:18:18.808Z,99286.02
2018-12-22T05:23:22.085Z,99284.69
2018-12-22T05:28:25.366Z,99278.13
2018-12-22T05:33:28.649Z,99283.49
2018-12-22T05:38:31.924Z,99297.20
2018-12-22T05:43:35.191Z,99297.06
2018-12-22T05:48:38.477Z,99298.03
2018-12-22T05:53:41.761Z,99290.38
2018-12-22T05:58:45.036Z,99288.19
2018-12-22T06:03:48.320Z,99291.52
2018-12-22T06:08:51.601Z,99289.33
2018-12-22T06:13:54.893Z,99292.52
2018-12-22T06:18:58.161Z,99289.41
2018-12-22T06:24:01.446Z,99285.37
2018-12-22T06:29:04.730Z,99279.31
2018-12-22T06:34:08.005Z,99278.28
2018-12-22T06:39:11.282Z,99280.73
2018-12-22T06:44:14.572Z,99288.09
2018-12-22T06:49:17.853Z,99296.63
2018-12-22T06:54:21.664Z,99289.23
2018-12-22T06:59:25.094Z,99292.41
2018-12-22T07:04:28.387Z,99297.33
2018-12-22T07:09:31.685Z,99295.07
2018-12-22T07:14:35.013Z,99298.30
2018-12-22T07:19:38.337Z,99302.06
2018-12-22T07:24:41.781Z,99295.13
2018-12-22T07:29:45.079Z,99282.84
2018-12-22T07:34:48.374Z,99287.02
2018-12-22T07:39:51.751Z,99289.86
2018-12-22T07:44:55.174Z,99289.63
2018-12-22T07:49:58.579Z,99283.41
2018-12-22T07:55:01.894Z,99287.59
2018-12-22T08:00:06.434Z,99287.39
2018-12-22T08:05:09.724Z,99304.55
2018-12-22T08:10:13.005Z,99314.24
2018-12-22T08:15:16.456Z,99321.16
2018-12-22T08:20:19.760Z,99311.95
2018-12-22T08:25:23.064Z,99300.41
2018-12-22T08:30:26.338Z,99296.19
2018-12-22T08:35:29.800Z,99311.78
2018-12-22T08:40:33.069Z,99302.82
2018-12-22T08:45:36.369Z,99307.41
2018-12-22T08:50:39.640Z,99312.70
2018-12-22T08:55:43.076Z,99322.85
2018-12-22T09:00:52.121Z,99310.02
2018-12-22T09:05:51.656Z,99321.16
2018-12-22T09:10:54.947Z,99315.24
2018-12-22T09:15:58.253Z,99333.73
2018-12-22T09:21:01.537Z,99327.31
2018-12-22T09:26:04.841Z,99336.70
2018-12-22T09:31:08.133Z,99343.67
2018-12-22T09:36:11.421Z,99347.34
2018-12-22T09:41:14.713Z,99344.31
2018-12-22T09:46:18.037Z,99336.61
2018-12-22T09:51:22.252Z,99348.19
2018-12-22T09:56:25.549Z,99332.18
2018-12-22T10:01:29.086Z,99352.35
2018-12-22T10:06:32.455Z,99378.63
2018-12-22T10:11:35.813Z,99397.20
2018-12-22T10:16:39.124Z,99427.20
2018-12-22T10:21:42.657Z,99417.32
2018-12-22T10:26:45.958Z,99423.03
2018-12-22T10:31:49.260Z,99445.49
2018-12-22T10:36:52.557Z,99450.63
2018-12-22T10:41:55.932Z,99459.31
2018-12-22T10:46:59.303Z,99462.28
2018-12-22T10:52:02.596Z,99476.05
2018-12-22T10:57:06.027Z,99514.89
2018-12-22T11:02:09.390Z,99520.95
2018-12-22T11:07:12.755Z,99515.28
2018-12-22T11:12:16.116Z,99519.41
2018-12-22T11:17:19.449Z,99531.94
2018-12-22T11:22:22.768Z,99535.12
2018-12-22T11:27:26.127Z,99536.46
2018-12-22T11:32:29.501Z,99547.95
2018-12-22T11:37:32.809Z,99562.47
2018-12-22T11:42:36.100Z,99576.13
2018-12-22T11:48:09.506Z,99600.38
2018-12-22T11:53:12.913Z,99614.18
2018-12-22T11:58:16.996Z,99619.47
2018-12-22T12:03:20.548Z,99630.31
2018-12-22T12:08:23.938Z,99645.46
2018-12-22T12:13:27.272Z,99648.84
2018-12-22T12:18:45.360Z,99667.98
2018-12-22T12:23:48.716Z,99688.57
2018-12-22T12:28:52.065Z,99706.92
2018-12-22T12:33:55.408Z,99708.76
2018-12-22T12:38:58.953Z,99724.01
2018-12-22T12:44:02.319Z,99747.91
2018-12-22T12:49:05.670Z,99757.08
2018-12-22T12:54:09.017Z,99769.37
2018-12-22T12:59:12.374Z,99773.88
2018-12-22T13:04:15.721Z,99785.72
2018-12-22T13:09:19.060Z,99795.59
2018-12-22T13:14:24.105Z,99804.14
2018-12-22T13:19:27.470Z,99809.59
2018-12-22T13:24:30.885Z,99825.47
2018-12-22T13:29:34.185Z,99844.96
2018-12-22T13:34:37.489Z,99854.63
2018-12-22T13:39:40.813Z,99874.25
2018-12-22T13:44:44.211Z,99888.88
2018-12-22T13:49:47.624Z,99899.61
2018-12-22T13:54:51.068Z,99908.28
2018-12-22T13:59:54.363Z,99922.30
2018-12-22T14:04:57.685Z,99934.63
2018-12-22T14:10:01.026Z,99934.13
2018-12-22T14:15:05.581Z,99944.86
2018-12-22T14:20:12.273Z,99950.72
2018-12-22T14:25:21.230Z,99963.59
2018-12-22T14:30:24.545Z,99971.79
2018-12-22T14:35:44.657Z,99980.54
2018-12-22T14:40:48.807Z,99984.30
2018-12-22T14:45:52.106Z,99997.90
2018-12-22T14:50:55.485Z,100015.34
2018-12-22T14:55:58.851Z,100020.58
2018-12-22T15:01:02.196Z,100025.81
2018-12-22T15:06:05.554Z,100027.16
2018-12-22T15:11:08.894Z,100054.13
2018-12-22T15:16:12.221Z,100061.32
2018-12-22T15:21:15.681Z,100068.03
2018-12-22T15:26:19.026Z,100075.23
2018-12-22T15:31:22.360Z,100077.16
2018-12-22T15:36:25.722Z,100078.73
2018-12-22T15:41:29.033Z,100074.97
2018-12-22T15:46:32.359Z,100077.88
2018-12-22T15:51:35.698Z,100078.99
2018-12-22T15:56:39.021Z,100074.34
2018-12-22T16:01:42.330Z,100076.31
2018-12-22T16:06:45.629Z,100075.81
2018-12-22T16:11:48.957Z,100073.63
2018-12-22T16:16:52.258Z,100081.42
2018-12-22T16:22:01.955Z,100073.50
2018-12-22T16:27:05.276Z,100076.80
2018-12-22T16:32:09.071Z,100077.88
2018-12-22T16:37:12.429Z,100087.30
2018-12-22T16:42:15.747Z,100084.02
2018-12-22T16:47:19.076Z,100092.05
2018-12-22T16:52:22.377Z,100090.61
2018-12-22T16:57:25.672Z,100098.66
2018-12-22T17:02:52.913Z,100109.03
2018-12-22T17:07:56.241Z,100110.86
2018-12-22T17:12:59.575Z,100121.33
2018-12-22T17:18:02.869Z,100131.12
2018-12-22T17:23:25.072Z,100129.73
2018-12-22T17:28:28.702Z,100139.15
2018-12-22T17:33:32.261Z,100140.33
2018-12-22T17:38:35.594Z,100141.19
2018-12-22T17:43:40.493Z,100140.10
2018-12-22T17:48:43.804Z,100152.18
2018-12-22T17:53:47.130Z,100138.50
2018-12-22T17:58:50.460Z,100142.14
2018-12-22T18:03:53.864Z,100139.22
2018-12-22T18:08:57.198Z,100141.31
2018-12-22T18:14:00.505Z,100150.70
2018-12-22T18:19:04.416Z,100149.73
2018-12-22T18:24:07.750Z,100138.65
2018-12-22T18:29:11.065Z,100163.27
2018-12-22T18:34:14.406Z,100129.00
2018-12-22T18:39:17.756Z,100143.05
2018-12-22T18:44:21.085Z,100153.41
2018-12-22T18:49:24.394Z,100150.23
2018-12-22T18:54:27.743Z,100159.41
2018-12-22T18:59:31.047Z,100167.55
2018-12-22T19:04:34.361Z,100174.62
2018-12-22T19:09:39.853Z,100179.75
2018-12-22T19:14:54.436Z,100180.73
2018-12-22T19:19:57.831Z,100182.56
2018-12-22T19:25:01.207Z,100182.92
2018-12-22T19:30:04.798Z,100187.93
2018-12-22T19:35:08.113Z,100191.95
2018-12-22T19:40:11.420Z,100189.63
2018-12-22T19:45:14.735Z,100193.42
2018-12-22T19:50:18.037Z,100197.70
2018-12-22T19:55:21.355Z,100193.42
2018-12-22T20:00:24.676Z,100194.53
2018-12-22T20:05:27.980Z,100196.85
2018-12-22T20:10:31.309Z,100197.94
2018-12-22T20:15:34.704Z,100209.02
2018-12-22T20:20:38.020Z,100208.31
2018-12-22T20:25:42.622Z,100218.69
2018-12-22T20:30:46.201Z,100227.80
2018-12-22T20:35:49.520Z,100231.73
2018-12-22T20:40:52.813Z,100233.17
2018-12-22T20:45:56.206Z,100232.95
2018-12-22T20:50:59.582Z,100230.00
2018-12-22T20:56:02.902Z,100234.30
2018-12-22T21:01:06.288Z,100237.45
2018-12-22T21:06:18.426Z,100235.50
2018-12-22T21:11:21.776Z,100239.53
2018-12-22T21:16:25.110Z,100237.34
2018-12-22T21:21:28.413Z,100244.64
2018-12-22T21:26:31.740Z,100254.66
2018-12-22T21:31:35.098Z,100251.38
2018-12-22T21:36:38.436Z,100265.16
2018-12-22T21:41:41.732Z,100265.16
2018-12-22T21:46:45.094Z,100273.91
2018-12-22T21:51:48.448Z,100276.14
2018-12-22T21:56:51.766Z,100278.43
2018-12-22T22:01:55.097Z,100283.45
2018-12-22T22:06:58.446Z,100293.58
2018-12-22T22:12:01.791Z,100284.92
2018-12-22T22:17:05.263Z,100296.63
2018-12-22T22:22:08.556Z,100294.53
2018-12-22T22:27:12.021Z,100303.44
2018-12-22T22:32:15.382Z,100295.27
2018-12-22T22:37:18.695Z,100309.20
2018-12-22T22:42:22.062Z,100314.68
2018-12-22T22:47:25.483Z,100313.95
2018-12-22T22:52:28.824Z,100325.91
2018-12-22T22:57:32.194Z,100337.61
2018-12-22T23:02:35.479Z,100342.52
2018-12-22T23:07:38.765Z,100351.64
2018-12-22T23:12:42.097Z,100361.31
2018-12-22T23:17:45.410Z,100370.22
2018-12-22T23:22:48.705Z,100369.81
2018-12-22T23:27:52.014Z,100377.78
2018-12-22T23:32:55.301Z,100378.00
2018-12-22T23:37:58.629Z,100383.13
2018-12-22T23:43:01.905Z,100390.33
2018-12-22T23:48:05.226Z,100397.29
2018-12-22T23:53:08.537Z,100398.52
2018-12-22T23:58:11.934Z,100395.95
